Time;durP1;ratioP1;P1;durP2;ratioP2;P2;SDS_P1;SDS_P2;PMS_P1;PMS_P2;Temp;Humidity;BMP_temperature;BMP_pressure;BME280_temperature;BME280_humidity;BME280_pressure;Samples;Min_cycle;Max_cycle;Signal;HPM_P1;HPM_P2
2022/06/16 00:01:40;;;;;;;6.10;2.80;;;;;;;;;;6195142;23;20474;-64
2022/06/16 00:04:07;;;;;;;6.10;2.70;;;;;;;;;;6191854;23;20040;-64
2022/06/16 00:06:33;;;;;;;8.38;3.10;;;;;;;;;;6201461;23;20020;-64
2022/06/16 00:08:59;;;;;;;8.40;2.90;;;;;;;;;;6190689;23;20396;-64
2022/06/16 00:11:26;;;;;;;7.68;2.53;;;;;;;;;;6201144;23;20461;-63
2022/06/16 00:13:52;;;;;;;6.85;2.75;;;;;;;;;;6185265;22;20103;-64
2022/06/16 00:16:19;;;;;;;5.70;3.00;;;;;;;;;;6195327;23;20112;-64
2022/06/16 00:18:46;;;;;;;8.15;2.90;;;;;;;;;;6202781;23;20103;-63
2022/06/16 00:21:13;;;;;;;9.52;3.45;;;;;;;;;;6193091;22;20128;-63
2022/06/16 00:23:39;;;;;;;6.95;4.05;;;;;;;;;;6202469;23;20024;-65
2022/06/16 00:26:13;;;;;;;7.93;3.35;;;;;;;;;;6194197;23;20103;-63
2022/06/16 00:28:42;;;;;;;7.15;2.85;;;;;;;;;;6194691;23;20025;-62
2022/06/16 00:31:10;;;;;;;6.97;2.95;;;;;;;;;;6191138;23;20043;-63
2022/06/16 00:33:37;;;;;;;;;;;;;;;;;;6201319;23;20516;-64
2022/06/16 00:36:03;;;;;;;8.55;2.88;;;;;;;;;;6202508;23;20005;-63
2022/06/16 00:38:29;;;;;;;5.10;2.78;;;;;;;;;;6194012;23;20028;-63
2022/06/16 00:40:56;;;;;;;5.60;2.95;;;;;;;;;;6196796;23;20038;-63
2022/06/16 00:43:22;;;;;;;4.95;2.92;;;;;;;;;;6184301;23;20028;-63
2022/06/16 00:45:50;;;;;;;5.40;2.72;;;;;;;;;;6201911;23;20095;-63
2022/06/16 00:48:17;;;;;;;;;;;;;;;;;;6191779;23;20024;-64
2022/06/16 00:50:46;;;;;;;5.63;2.78;;;;;;;;;;6201608;23;19955;-63
2022/06/16 00:53:12;;;;;;;7.38;3.17;;;;;;;;;;6200819;23;20115;-64
2022/06/16 00:55:39;;;;;;;7.28;2.72;;;;;;;;;;6185607;23;20025;-63
2022/06/16 00:58:06;;;;;;;6.43;2.75;;;;;;;;;;6195266;23;20313;-63
2022/06/16 01:00:45;;;;;;;5.03;2.38;;;;;;;;;;6191194;22;20021;-64
2022/06/16 01:03:12;;;;;;;3.65;2.80;;;;;;;;;;6199597;23;20036;-62
2022/06/16 01:05:39;;;;;;;6.35;2.80;;;;;;;;;;6189852;23;20027;-62
2022/06/16 01:08:07;;;;;;;6.93;2.90;;;;;;;;;;6200499;23;20132;-63
2022/06/16 01:10:38;;;;;;;6.50;3.33;;;;;;;;;;6192982;23;20027;-62
2022/06/16 01:16:15;;;;;;;5.83;2.80;;;;;;;;;;6200909;23;20662;-64
2022/06/16 01:18:42;;;;;;;6.68;2.97;;;;;;;;;;6189929;22;20025;-63
2022/06/16 01:21:20;;;;;;;5.72;2.83;;;;;;;;;;6200066;23;20024;-64
2022/06/16 01:24:07;;;;;;;6.03;2.55;;;;;;;;;;6185183;23;20295;-63
2022/06/16 01:26:37;;;;;;;9.13;3.03;;;;;;;;;;6193849;23;20103;-63
2022/06/16 01:29:13;;;;;;;7.25;2.92;;;;;;;;;;6189671;23;20025;-65
2022/06/16 01:31:54;;;;;;;5.82;2.95;;;;;;;;;;6200683;23;20103;-63
2022/06/16 01:34:27;;;;;;;3.65;2.60;;;;;;;;;;6187298;23;20508;-64
2022/06/16 01:37:11;;;;;;;5.43;2.95;;;;;;;;;;6197897;23;20357;-64
2022/06/16 01:39:45;;;;;;;5.65;2.90;;;;;;;;;;6189315;23;20441;-63
2022/06/16 01:42:17;;;;;;;6.20;3.25;;;;;;;;;;6198433;23;20147;-63
2022/06/16 01:44:48;;;;;;;4.65;2.60;;;;;;;;;;6200882;23;20783;-63
2022/06/16 01:47:16;;;;;;;8.20;3.38;;;;;;;;;;6189912;22;20250;-64
2022/06/16 01:49:48;;;;;;;7.00;2.92;;;;;;;;;;6199285;23;20024;-64
2022/06/16 01:52:18;;;;;;;7.28;2.65;;;;;;;;;;6183078;23;20021;-64
2022/06/16 01:54:51;;;;;;;8.93;4.20;;;;;;;;;;6199213;23;20055;-64
2022/06/16 01:57:27;;;;;;;7.95;4.05;;;;;;;;;;6189900;23;20062;-64
2022/06/16 02:00:06;;;;;;;6.38;2.92;;;;;;;;;;6200178;23;20131;-63
2022/06/16 02:02:33;;;;;;;6.13;2.55;;;;;;;;;;6173646;23;20648;-63
2022/06/16 02:05:08;;;;;;;4.25;2.72;;;;;;;;;;6182283;22;20032;-64
2022/06/16 02:07:37;;;;;;;6.75;3.15;;;;;;;;;;6196556;23;20632;-63
2022/06/16 02:10:11;;;;;;;9.32;3.42;;;;;;;;;;6189557;23;20554;-62
2022/06/16 02:12:57;;;;;;;6.72;3.20;;;;;;;;;;6200508;23;20579;-62
2022/06/16 02:15:24;;;;;;;5.60;2.78;;;;;;;;;;6189262;23;20028;-62
2022/06/16 02:17:50;;;;;;;6.95;3.80;;;;;;;;;;6196186;23;20706;-63
2022/06/16 02:20:17;;;;;;;5.88;3.00;;;;;;;;;;6183925;23;20369;-63
2022/06/16 02:22:43;;;;;;;6.47;3.05;;;;;;;;;;6199806;23;20024;-63
2022/06/16 02:25:10;;;;;;;6.05;3.40;;;;;;;;;;6199334;23;20429;-63
2022/06/16 02:27:36;;;;;;;7.70;3.45;;;;;;;;;;6189132;23;20107;-62
2022/06/16 02:30:03;;;;;;;6.07;3.28;;;;;;;;;;6199736;23;20082;-63
2022/06/16 02:32:32;;;;;;;9.52;3.50;;;;;;;;;;6180987;23;20099;-63
2022/06/16 02:35:03;;;;;;;4.38;3.40;;;;;;;;;;6198335;23;20024;-64
2022/06/16 02:37:32;;;;;;;5.70;3.38;;;;;;;;;;6190055;23;20189;-64
2022/06/16 02:40:17;;;;;;;5.15;3.45;;;;;;;;;;6198863;23;20020;-64
2022/06/16 02:43:05;;;;;;;6.63;3.65;;;;;;;;;;6202249;23;20024;-63
2022/06/16 02:45:34;;;;;;;9.95;3.53;;;;;;;;;;6199577;23;20078;-63
2022/06/16 02:48:07;;;;;;;8.75;3.30;;;;;;;;;;6201535;23;20171;-62
2022/06/16 02:50:33;;;;;;;7.53;3.78;;;;;;;;;;6191348;23;20027;-63
2022/06/16 02:53:12;;;;;;;4.88;3.15;;;;;;;;;;6202609;23;20021;-63
2022/06/16 02:55:40;;;;;;;7.70;3.50;;;;;;;;;;6186486;22;20445;-63
2022/06/16 02:58:08;;;;;;;9.07;3.65;;;;;;;;;;6196668;23;20357;-64
2022/06/16 03:00:36;;;;;;;8.40;3.50;;;;;;;;;;6196864;23;20027;-62
2022/06/16 03:03:19;;;;;;;5.03;2.95;;;;;;;;;;6201031;23;20124;-63
2022/06/16 03:05:49;;;;;;;6.90;3.30;;;;;;;;;;6202200;23;20020;-63
2022/06/16 03:08:15;;;;;;;5.00;3.20;;;;;;;;;;6191852;22;20202;-62
2022/06/16 03:10:51;;;;;;;6.65;3.40;;;;;;;;;;6194403;23;20027;-63
2022/06/16 03:13:25;;;;;;;6.60;3.10;;;;;;;;;;6188824;22;20491;-63
2022/06/16 03:15:52;;;;;;;4.85;3.13;;;;;;;;;;6201748;23;20107;-63
2022/06/16 03:18:20;;;;;;;5.90;2.90;;;;;;;;;;6191207;23;20403;-63
2022/06/16 03:20:47;;;;;;;4.63;2.88;;;;;;;;;;6201655;23;20031;-63
2022/06/16 03:23:13;;;;;;;4.60;2.90;;;;;;;;;;6195865;23;20446;-63
2022/06/16 03:25:40;;;;;;;6.78;2.83;;;;;;;;;;6185413;22;20561;-63
2022/06/16 03:28:08;;;;;;;6.32;3.50;;;;;;;;;;6200569;23;20448;-63
2022/06/16 03:30:34;;;;;;;6.93;3.30;;;;;;;;;;6191202;22;20024;-64
2022/06/16 03:33:01;;;;;;;5.70;2.83;;;;;;;;;;6199306;23;20681;-62
2022/06/16 03:35:28;;;;;;;5.57;2.90;;;;;;;;;;6191884;23;20020;-63
2022/06/16 03:37:55;;;;;;;7.53;3.25;;;;;;;;;;6195218;23;20020;-62
2022/06/16 03:40:22;;;;;;;4.97;2.92;;;;;;;;;;6194850;23;20027;-63
2022/06/16 03:42:49;;;;;;;5.75;2.85;;;;;;;;;;6191576;23;20027;-62
2022/06/16 03:45:16;;;;;;;4.43;2.50;;;;;;;;;;6201444;23;20025;-63
2022/06/16 03:47:42;;;;;;;7.35;3.25;;;;;;;;;;6191275;23;20683;-61
2022/06/16 03:50:11;;;;;;;7.28;3.00;;;;;;;;;;6201898;23;20104;-62
2022/06/16 03:52:37;;;;;;;6.25;3.53;;;;;;;;;;6186319;22;20467;-63
2022/06/16 03:55:04;;;;;;;7.97;3.40;;;;;;;;;;6195914;23;20415;-63
2022/06/16 03:57:30;;;;;;;5.03;2.83;;;;;;;;;;6200659;23;20426;-63
2022/06/16 03:59:56;;;;;;;7.35;2.72;;;;;;;;;;6190720;22;20031;-64
2022/06/16 04:02:23;;;;;;;6.65;2.70;;;;;;;;;;6200289;23;20038;-63
2022/06/16 04:04:49;;;;;;;5.50;3.38;;;;;;;;;;6186470;22;20380;-62
2022/06/16 04:07:16;;;;;;;11.43;3.95;;;;;;;;;;6194750;23;20079;-63
2022/06/16 04:09:42;;;;;;;5.90;3.25;;;;;;;;;;6196180;23;20024;-63
2022/06/16 04:12:09;;;;;;;9.43;3.05;;;;;;;;;;6196761;23;20024;-63
2022/06/16 04:14:37;;;;;;;5.97;3.10;;;;;;;;;;6201782;23;20103;-64
2022/06/16 04:17:04;;;;;;;6.20;3.23;;;;;;;;;;6191597;23;20033;-63
2022/06/16 04:19:30;;;;;;;6.70;2.97;;;;;;;;;;6196182;23;20024;-63
2022/06/16 04:21:56;;;;;;;6.20;3.10;;;;;;;;;;6190522;23;20024;-64
2022/06/16 04:24:23;;;;;;;6.10;3.17;;;;;;;;;;6200486;23;20084;-62
2022/06/16 04:26:51;;;;;;;10.35;3.40;;;;;;;;;;6202287;23;20350;-63
2022/06/16 04:29:18;;;;;;;;;;;;;;;;;;6191102;23;20017;-63
2022/06/16 04:31:45;;;;;;;9.80;3.33;;;;;;;;;;6200937;23;19999;-63
2022/06/16 04:34:11;;;;;;;9.50;3.40;;;;;;;;;;6184013;23;20024;-64
2022/06/16 04:36:38;;;;;;;8.13;3.72;;;;;;;;;;6195420;23;20020;-62
2022/06/16 04:39:04;;;;;;;6.03;3.20;;;;;;;;;;6189390;22;20027;-63
2022/06/16 04:41:31;;;;;;;6.18;3.03;;;;;;;;;;6201277;23;20103;-63
2022/06/16 04:43:57;;;;;;;8.23;3.38;;;;;;;;;;6201434;23;20503;-64
2022/06/16 04:46:25;;;;;;;4.15;2.67;;;;;;;;;;6189096;22;20481;-63
2022/06/16 04:48:52;;;;;;;8.02;3.42;;;;;;;;;;6192062;23;20047;-64
2022/06/16 04:51:18;;;;;;;6.18;2.90;;;;;;;;;;6190540;23;20039;-63
2022/06/16 04:53:44;;;;;;;5.75;2.97;;;;;;;;;;6200331;23;20024;-63
2022/06/16 04:56:11;;;;;;;6.47;2.95;;;;;;;;;;6190725;23;20541;-63
2022/06/16 04:58:37;;;;;;;5.68;3.08;;;;;;;;;;6201452;23;20421;-63
2022/06/16 05:01:05;;;;;;;8.52;3.58;;;;;;;;;;6197980;23;20039;-63
2022/06/16 05:03:47;;;;;;;6.90;3.03;;;;;;;;;;6196781;23;20025;-62
2022/06/16 05:06:14;;;;;;;5.90;3.00;;;;;;;;;;6200307;23;20063;-63
2022/06/16 05:08:40;;;;;;;5.80;2.83;;;;;;;;;;6190521;22;20020;-63
2022/06/16 05:11:07;;;;;;;5.13;2.95;;;;;;;;;;6196362;23;20164;-63
2022/06/16 05:13:33;;;;;;;6.70;3.17;;;;;;;;;;6183789;23;20108;-63
2022/06/16 05:15:59;;;;;;;5.65;2.85;;;;;;;;;;6199826;23;20025;-63
2022/06/16 05:18:26;;;;;;;6.60;2.63;;;;;;;;;;6173194;23;20612;-62
2022/06/16 05:20:52;;;;;;;7.40;2.65;;;;;;;;;;6190078;23;20031;-64
2022/06/16 05:23:18;;;;;;;6.35;2.40;;;;;;;;;;6199838;23;20100;-64
2022/06/16 05:25:45;;;;;;;6.65;2.50;;;;;;;;;;6185239;23;20063;-64
2022/06/16 05:28:11;;;;;;;4.45;2.53;;;;;;;;;;6193739;23;20025;-64
2022/06/16 05:30:37;;;;;;;7.18;2.47;;;;;;;;;;6189830;22;20031;-64
2022/06/16 05:33:04;;;;;;;4.57;2.40;;;;;;;;;;6197262;23;20024;-64
2022/06/16 05:35:30;;;;;;;10.95;2.65;;;;;;;;;;6199660;23;20025;-64
2022/06/16 05:37:56;;;;;;;7.70;2.35;;;;;;;;;;6188971;23;20107;-64
2022/06/16 05:40:23;;;;;;;5.32;2.42;;;;;;;;;;6192501;23;20395;-64
2022/06/16 05:42:49;;;;;;;6.45;2.67;;;;;;;;;;6190316;23;20021;-63
2022/06/16 05:45:16;;;;;;;3.92;2.63;;;;;;;;;;6199124;23;20020;-64
2022/06/16 05:47:42;;;;;;;5.03;2.17;;;;;;;;;;6200235;23;20031;-63
2022/06/16 05:50:09;;;;;;;4.47;2.00;;;;;;;;;;6190598;23;20301;-63
2022/06/16 05:52:35;;;;;;;7.10;1.92;;;;;;;;;;6190482;23;20042;-63
2022/06/16 05:55:01;;;;;;;4.35;2.38;;;;;;;;;;6186982;22;20024;-65
2022/06/16 05:57:28;;;;;;;3.78;2.30;;;;;;;;;;6198856;23;20024;-65
2022/06/16 05:59:54;;;;;;;3.78;2.13;;;;;;;;;;6191243;23;20025;-66
2022/06/16 06:02:21;;;;;;;5.63;2.05;;;;;;;;;;6199596;23;20433;-64
2022/06/16 06:04:48;;;;;;;4.75;1.90;;;;;;;;;;6195066;23;20043;-64
2022/06/16 06:07:15;;;;;;;8.65;2.40;;;;;;;;;;6181593;23;20417;-65
2022/06/16 06:18:16;;;;;;;5.88;1.58;;;;;;;;;;6192629;23;20032;-65
2022/06/16 06:20:43;;;;;;;5.07;1.70;;;;;;;;;;6191498;23;20471;-65
2022/06/16 06:23:10;;;;;;;2.35;1.40;;;;;;;;;;6187274;22;20063;-69
2022/06/16 06:25:36;;;;;;;6.20;1.45;;;;;;;;;;6199369;23;20087;-65
2022/06/16 06:28:03;;;;;;;4.82;1.45;;;;;;;;;;6199458;23;20020;-64
2022/06/16 06:30:30;;;;;;;5.38;2.42;;;;;;;;;;6188294;23;20104;-64
2022/06/16 06:32:57;;;;;;;5.03;1.70;;;;;;;;;;6191667;23;20280;-65
2022/06/16 06:35:24;;;;;;;4.82;1.75;;;;;;;;;;6182825;23;20196;-65
2022/06/16 06:37:51;;;;;;;5.38;1.60;;;;;;;;;;6200268;23;20116;-66
2022/06/16 06:40:19;;;;;;;2.40;1.30;;;;;;;;;;6193261;23;20031;-65
2022/06/16 06:42:46;;;;;;;6.78;1.98;;;;;;;;;;6202445;23;20115;-65
2022/06/16 06:45:12;;;;;;;5.78;2.10;;;;;;;;;;6200895;23;20024;-67
2022/06/16 06:47:38;;;;;;;3.25;1.30;;;;;;;;;;6189853;23;20853;-65
2022/06/16 06:50:05;;;;;;;5.65;1.98;;;;;;;;;;6195913;23;20027;-66
2022/06/16 06:52:31;;;;;;;3.15;1.30;;;;;;;;;;6192999;23;20937;-65
2022/06/16 06:54:58;;;;;;;4.57;1.30;;;;;;;;;;6200424;23;20421;-65
2022/06/16 06:57:25;;;;;;;5.40;1.50;;;;;;;;;;6189392;23;20108;-65
2022/06/16 06:59:52;;;;;;;8.18;1.92;;;;;;;;;;6199276;23;20104;-66
2022/06/16 07:02:19;;;;;;;5.20;1.30;;;;;;;;;;6193839;23;20025;-65
2022/06/16 07:04:46;;;;;;;3.20;1.20;;;;;;;;;;6184537;23;20422;-63
2022/06/16 07:07:16;;;;;;;4.25;1.10;;;;;;;;;;6200245;23;20601;-65
2022/06/16 07:09:42;;;;;;;2.42;1.08;;;;;;;;;;6189756;23;20020;-66
2022/06/16 07:12:13;;;;;;;2.75;1.20;;;;;;;;;;6200312;23;20440;-65
2022/06/16 07:14:46;;;;;;;4.57;1.25;;;;;;;;;;6187285;23;20104;-65
2022/06/16 07:17:13;;;;;;;3.60;1.20;;;;;;;;;;6192651;23;20021;-66
2022/06/16 07:19:40;;;;;;;2.78;0.82;;;;;;;;;;6198913;23;20521;-65
2022/06/16 07:22:07;;;;;;;3.42;1.30;;;;;;;;;;6188080;23;20131;-65
2022/06/16 07:24:34;;;;;;;5.78;1.20;;;;;;;;;;6199671;23;20477;-64
2022/06/16 07:27:01;;;;;;;3.58;1.20;;;;;;;;;;6190170;23;20035;-65
2022/06/16 07:29:27;;;;;;;4.28;1.40;;;;;;;;;;6198936;23;20099;-65
2022/06/16 07:32:01;;;;;;;3.25;1.23;;;;;;;;;;6191438;23;20164;-65
2022/06/16 07:34:27;;;;;;;3.10;1.30;;;;;;;;;;6198088;23;20025;-64
2022/06/16 07:36:54;;;;;;;3.67;1.35;;;;;;;;;;6200685;23;20454;-65
2022/06/16 07:39:25;;;;;;;2.88;1.48;;;;;;;;;;6184953;22;20534;-64
2022/06/16 07:41:51;;;;;;;4.25;1.27;;;;;;;;;;6195477;23;20095;-66
2022/06/16 07:44:17;;;;;;;2.95;1.20;;;;;;;;;;6189419;23;20103;-64
2022/06/16 07:46:46;;;;;;;3.72;1.40;;;;;;;;;;6201929;23;20032;-65
2022/06/16 07:49:15;;;;;;;5.47;1.38;;;;;;;;;;6165236;23;20027;-67
2022/06/16 07:51:42;;;;;;;;;;;;;;;;;;6200501;23;20525;-65
2022/06/16 07:54:12;;;;;;;3.78;1.20;;;;;;;;;;6193575;23;19927;-65
2022/06/16 07:56:58;;;;;;;3.35;1.00;;;;;;;;;;6189983;23;20465;-65
2022/06/16 07:59:25;;;;;;;1.88;1.08;;;;;;;;;;6199211;23;20035;-64
2022/06/16 08:01:51;;;;;;;2.88;0.90;;;;;;;;;;6190504;23;20020;-66
2022/06/16 08:04:18;;;;;;;4.70;1.20;;;;;;;;;;6200726;23;20021;-65
2022/06/16 08:06:45;;;;;;;3.38;1.10;;;;;;;;;;6185259;22;20844;-66
2022/06/16 08:09:11;;;;;;;2.05;1.00;;;;;;;;;;6194254;23;20031;-65
2022/06/16 08:12:24;;;;;;;3.38;1.02;;;;;;;;;;6200309;23;20111;-65
2022/06/16 08:14:25;;;;;;;2.88;1.10;;;;;;;;;;6178737;23;20107;-65
2022/06/16 08:16:51;;;;;;;4.32;1.33;;;;;;;;;;6201848;23;20473;-65
2022/06/16 08:19:18;;;;;;;2.33;1.20;;;;;;;;;;6190528;23;20110;-67
2022/06/16 08:21:45;;;;;;;4.70;1.40;;;;;;;;;;6167329;23;20441;-65
2022/06/16 08:24:11;;;;;;;3.47;1.02;;;;;;;;;;6185434;23;20638;-65
2022/06/16 08:26:37;;;;;;;2.13;1.10;;;;;;;;;;6200917;23;20063;-65
2022/06/16 08:29:06;;;;;;;3.67;1.20;;;;;;;;;;6199543;23;20040;-65
2022/06/16 08:31:32;;;;;;;3.03;1.10;;;;;;;;;;6190082;23;20107;-65
2022/06/16 08:33:59;;;;;;;7.53;1.48;;;;;;;;;;6195418;23;20020;-65
2022/06/16 08:36:26;;;;;;;3.28;0.90;;;;;;;;;;6181085;23;20821;-64
2022/06/16 08:38:52;;;;;;;7.22;1.60;;;;;;;;;;6199630;23;20020;-64
2022/06/16 08:41:40;;;;;;;2.80;1.13;;;;;;;;;;6189924;22;20027;-65
2022/06/16 08:44:06;;;;;;;;;;;;;;;;;;6199865;23;20373;-65
2022/06/16 08:46:35;;;;;;;4.22;1.17;;;;;;;;;;6201589;23;19966;-66
2022/06/16 08:49:18;;;;;;;4.35;1.17;;;;;;;;;;6185668;23;20048;-65
2022/06/16 08:51:55;;;;;;;3.40;1.20;;;;;;;;;;6196319;23;20445;-65
2022/06/16 08:54:24;;;;;;;1.92;1.15;;;;;;;;;;6190314;23;20020;-65
2022/06/16 08:56:58;;;;;;;2.17;1.08;;;;;;;;;;6202109;23;20135;-72
2022/06/16 08:59:49;;;;;;;6.45;1.30;;;;;;;;;;6191573;23;20525;-65
2022/06/16 09:02:24;;;;;;;4.63;1.45;;;;;;;;;;6195985;23;20119;-65
2022/06/16 09:04:58;;;;;;;6.72;1.50;;;;;;;;;;6186889;23;20060;-66
2022/06/16 09:07:33;;;;;;;3.95;1.35;;;;;;;;;;6200975;23;20117;-65
2022/06/16 09:10:15;;;;;;;3.50;1.52;;;;;;;;;;6195973;23;20021;-65
2022/06/16 09:12:52;;;;;;;3.40;1.17;;;;;;;;;;6199911;23;20070;-66
2022/06/16 09:15:38;;;;;;;5.23;1.33;;;;;;;;;;6194739;23;20021;-66
2022/06/16 09:18:23;;;;;;;5.53;1.42;;;;;;;;;;6189026;23;20021;-66
2022/06/16 09:21:01;;;;;;;3.42;1.33;;;;;;;;;;6199779;23;20378;-66
2022/06/16 09:23:48;;;;;;;3.70;1.38;;;;;;;;;;6189648;22;20025;-65
2022/06/16 09:26:24;;;;;;;5.88;1.52;;;;;;;;;;6199743;23;20025;-66
2022/06/16 09:29:01;;;;;;;5.25;1.40;;;;;;;;;;6183592;22;20701;-66
2022/06/16 09:31:30;;;;;;;5.28;1.88;;;;;;;;;;6193971;23;20021;-65
2022/06/16 09:34:04;;;;;;;2.67;1.35;;;;;;;;;;6187153;23;20020;-65
2022/06/16 09:36:34;;;;;;;3.97;1.33;;;;;;;;;;6199667;23;20066;-66
2022/06/16 09:39:15;;;;;;;2.85;1.40;;;;;;;;;;6190021;23;20024;-66
2022/06/16 09:44:54;;;;;;;1.75;1.40;;;;;;;;;;6182869;23;20104;-66
2022/06/16 09:47:25;;;;;;;6.05;1.70;;;;;;;;;;6199975;23;20110;-66
2022/06/16 09:49:53;;;;;;;5.63;1.73;;;;;;;;;;6200328;23;20027;-66
2022/06/16 09:52:29;;;;;;;4.38;1.83;;;;;;;;;;6196595;23;20051;-66
2022/06/16 09:55:00;;;;;;;4.10;1.80;;;;;;;;;;6202154;23;20098;-65
2022/06/16 09:57:31;;;;;;;4.10;1.70;;;;;;;;;;6187033;23;20027;-65
2022/06/16 10:00:04;;;;;;;3.97;1.73;;;;;;;;;;6195476;23;20042;-66
2022/06/16 10:02:39;;;;;;;6.30;1.88;;;;;;;;;;6192953;23;20020;-66
2022/06/16 10:05:08;;;;;;;4.22;2.00;;;;;;;;;;6199759;23;20995;-66
2022/06/16 10:07:43;;;;;;;5.20;1.80;;;;;;;;;;6190187;23;20031;-67
2022/06/16 10:10:15;;;;;;;4.78;1.98;;;;;;;;;;6199647;23;20021;-65
2022/06/16 10:12:50;;;;;;;3.35;1.92;;;;;;;;;;6190580;23;20441;-66
2022/06/16 10:15:20;;;;;;;7.47;2.05;;;;;;;;;;6187960;23;20108;-65
2022/06/16 10:17:47;;;;;;;4.65;1.77;;;;;;;;;;6200232;23;20024;-67
2022/06/16 10:20:18;;;;;;;3.25;1.80;;;;;;;;;;6188622;23;20025;-64
2022/06/16 10:22:46;;;;;;;5.07;1.60;;;;;;;;;;6200152;23;20468;-64
2022/06/16 10:25:12;;;;;;;;;;;;;;;;;;6183850;22;20024;-65
2022/06/16 10:27:44;;;;;;;6.47;2.00;;;;;;;;;;6194129;23;19926;-65
2022/06/16 10:30:22;;;;;;;5.78;1.58;;;;;;;;;;6198381;23;20020;-66
2022/06/16 10:32:59;;;;;;;7.72;2.53;;;;;;;;;;6196492;23;20345;-65
2022/06/16 10:35:26;;;;;;;5.25;2.60;;;;;;;;;;6198785;23;20058;-65
2022/06/16 10:37:53;;;;;;;3.22;1.73;;;;;;;;;;6159981;23;20025;-65
2022/06/16 10:40:24;;;;;;;2.67;1.53;;;;;;;;;;6166716;23;20129;-65
2022/06/16 10:42:54;;;;;;;5.47;2.00;;;;;;;;;;6189315;23;20256;-65
2022/06/16 10:45:25;;;;;;;4.15;2.00;;;;;;;;;;6199780;23;20140;-65
2022/06/16 10:47:53;;;;;;;5.30;2.00;;;;;;;;;;6193677;23;20590;-66
2022/06/16 10:50:24;;;;;;;8.52;2.35;;;;;;;;;;6199717;23;20141;-66
2022/06/16 10:52:57;;;;;;;5.18;2.17;;;;;;;;;;6195289;23;20021;-65
2022/06/16 10:55:25;;;;;;;4.93;1.80;;;;;;;;;;6184403;23;20060;-65
2022/06/16 10:57:59;;;;;;;4.82;2.05;;;;;;;;;;6199761;23;20512;-65
2022/06/16 11:00:27;;;;;;;5.05;1.98;;;;;;;;;;6189200;23;20046;-65
2022/06/16 11:02:59;;;;;;;5.38;2.13;;;;;;;;;;6201077;23;20067;-65
2022/06/16 11:05:27;;;;;;;4.72;1.80;;;;;;;;;;6190707;23;20024;-66
2022/06/16 11:08:03;;;;;;;4.35;2.15;;;;;;;;;;6192103;23;20028;-66
2022/06/16 11:10:32;;;;;;;6.68;1.95;;;;;;;;;;6199283;23;20028;-65
2022/06/16 11:12:58;;;;;;;7.53;2.03;;;;;;;;;;6190742;23;20424;-65
2022/06/16 11:15:31;;;;;;;6.03;2.00;;;;;;;;;;6201061;23;20028;-66
2022/06/16 11:18:06;;;;;;;4.40;1.85;;;;;;;;;;6191338;22;20641;-65
2022/06/16 11:20:39;;;;;;;7.35;2.30;;;;;;;;;;6195944;23;20334;-66
2022/06/16 11:23:24;;;;;;;4.15;1.88;;;;;;;;;;6185316;23;20025;-65
2022/06/16 11:25:55;;;;;;;4.90;1.75;;;;;;;;;;6201293;23;20104;-65
2022/06/16 11:28:23;;;;;;;5.28;2.30;;;;;;;;;;6190942;23;20334;-65
2022/06/16 11:30:49;;;;;;;;;;;;;;;;;;6200875;23;20099;-65
2022/06/16 11:34:06;;;;;;;5.40;1.83;;;;;;;;;;6197390;23;20002;-65
2022/06/16 11:36:11;;;;;;;7.55;1.98;;;;;;;;;;6181065;23;20055;-64
2022/06/16 11:38:41;;;;;;;5.25;1.90;;;;;;;;;;6200577;23;20262;-65
2022/06/16 11:41:10;;;;;;;4.47;2.05;;;;;;;;;;6189557;23;20099;-65
2022/06/16 11:43:43;;;;;;;4.05;1.90;;;;;;;;;;6200947;23;20111;-65
2022/06/16 11:46:41;;;;;;;6.55;1.70;;;;;;;;;;6189904;22;20032;-65
2022/06/16 11:49:26;;;;;;;7.00;1.90;;;;;;;;;;6144523;23;20031;-65
2022/06/16 11:51:58;;;;;;;4.22;1.90;;;;;;;;;;6186828;23;20409;-65
2022/06/16 11:54:40;;;;;;;4.30;2.10;;;;;;;;;;6200102;23;20449;-64
2022/06/16 11:57:12;;;;;;;6.15;1.95;;;;;;;;;;6194378;23;20039;-65
2022/06/16 11:59:58;;;;;;;5.20;2.08;;;;;;;;;;6200132;23;20024;-66
2022/06/16 12:02:34;;;;;;;4.75;2.10;;;;;;;;;;6194624;23;20024;-66
2022/06/16 12:05:21;;;;;;;5.20;2.20;;;;;;;;;;6186995;23;20063;-65
2022/06/16 12:07:53;;;;;;;4.65;2.00;;;;;;;;;;6154305;23;20306;-64
2022/06/16 12:10:19;;;;;;;4.43;1.77;;;;;;;;;;6189905;23;20339;-65
2022/06/16 12:12:58;;;;;;;4.97;2.10;;;;;;;;;;6200782;23;20104;-65
2022/06/16 12:15:25;;;;;;;6.95;2.08;;;;;;;;;;6183534;23;20031;-65
2022/06/16 12:18:05;;;;;;;4.47;1.77;;;;;;;;;;6195040;23;20021;-65
2022/06/16 12:20:35;;;;;;;6.45;2.10;;;;;;;;;;6197969;22;20651;-65
2022/06/16 12:23:04;;;;;;;5.45;2.17;;;;;;;;;;6201289;23;20025;-65
2022/06/16 12:25:40;;;;;;;4.40;1.60;;;;;;;;;;6200744;23;20106;-65
2022/06/16 12:28:07;;;;;;;4.15;2.17;;;;;;;;;;6190418;23;20428;-65
2022/06/16 12:30:48;;;;;;;7.18;2.20;;;;;;;;;;6194081;23;20328;-65
2022/06/16 12:33:17;;;;;;;4.00;1.90;;;;;;;;;;6183865;23;20535;-65
2022/06/16 12:36:16;;;;;;;5.30;2.22;;;;;;;;;;6200357;23;20108;-65
2022/06/16 12:38:48;;;;;;;6.03;2.22;;;;;;;;;;6139617;22;20031;-65
2022/06/16 12:41:18;;;;;;;5.28;2.03;;;;;;;;;;6200226;23;20139;-65
2022/06/16 12:43:48;;;;;;;9.85;2.17;;;;;;;;;;6185350;23;20025;-65
2022/06/16 12:46:26;;;;;;;4.53;2.20;;;;;;;;;;6193632;23;20462;-67
2022/06/16 12:48:55;;;;;;;3.63;1.88;;;;;;;;;;6200217;23;20059;-66
2022/06/16 12:51:26;;;;;;;7.95;2.10;;;;;;;;;;6190238;23;20030;-65
2022/06/16 12:53:58;;;;;;;7.57;2.83;;;;;;;;;;6202264;23;20462;-65
2022/06/16 12:56:37;;;;;;;2.35;1.83;;;;;;;;;;6191856;23;20103;-65
2022/06/16 12:59:07;;;;;;;5.20;1.98;;;;;;;;;;6194522;23;20027;-65
2022/06/16 13:01:36;;;;;;;4.03;2.15;;;;;;;;;;6192938;23;20021;-65
2022/06/16 13:04:10;;;;;;;6.32;2.20;;;;;;;;;;6200526;23;20100;-66
2022/06/16 13:06:37;;;;;;;3.22;2.15;;;;;;;;;;6200112;23;20020;-65
2022/06/16 13:09:06;;;;;;;7.68;2.22;;;;;;;;;;6162856;23;20462;-66
2022/06/16 13:11:35;;;;;;;5.60;2.25;;;;;;;;;;6194756;23;20056;-65
2022/06/16 13:14:03;;;;;;;5.57;2.13;;;;;;;;;;6182924;23;20038;-65
2022/06/16 13:16:31;;;;;;;5.68;2.00;;;;;;;;;;6198767;23;20027;-65
2022/06/16 13:18:57;;;;;;;5.38;2.00;;;;;;;;;;6189952;23;20473;-66
2022/06/16 13:21:29;;;;;;;5.82;2.40;;;;;;;;;;6199486;23;20027;-65
2022/06/16 13:24:10;;;;;;;6.47;2.15;;;;;;;;;;6199277;23;20471;-65
2022/06/16 13:26:41;;;;;;;3.30;2.10;;;;;;;;;;6185152;23;20296;-66
2022/06/16 13:29:15;;;;;;;6.80;2.28;;;;;;;;;;6197486;23;20067;-65
2022/06/16 13:31:42;;;;;;;7.18;1.98;;;;;;;;;;6191501;23;20021;-67
2022/06/16 13:34:08;;;;;;;4.47;2.17;;;;;;;;;;6196976;23;20453;-65
2022/06/16 13:36:34;;;;;;;5.20;2.10;;;;;;;;;;6189805;23;20099;-66
2022/06/16 13:39:03;;;;;;;4.63;2.30;;;;;;;;;;6193918;23;20119;-65
2022/06/16 13:41:32;;;;;;;3.05;2.10;;;;;;;;;;6186824;23;20466;-65
2022/06/16 13:44:09;;;;;;;5.40;2.10;;;;;;;;;;6198887;23;20063;-66
2022/06/16 13:46:54;;;;;;;6.78;2.25;;;;;;;;;;6199000;23;20615;-66
2022/06/16 13:49:27;;;;;;;4.38;2.10;;;;;;;;;;6189426;23;20128;-65
2022/06/16 13:52:04;;;;;;;5.40;2.40;;;;;;;;;;6193858;23;20031;-64
2022/06/16 13:54:35;;;;;;;5.80;2.20;;;;;;;;;;6182830;22;20094;-65
2022/06/16 13:57:22;;;;;;;4.10;2.22;;;;;;;;;;6198959;23;20079;-65
2022/06/16 13:59:53;;;;;;;3.97;2.20;;;;;;;;;;6189576;23;20470;-65
2022/06/16 14:02:23;;;;;;;4.55;2.38;;;;;;;;;;6199143;23;20405;-65
2022/06/16 14:05:00;;;;;;;4.38;2.20;;;;;;;;;;6189798;23;20115;-65
2022/06/16 14:07:35;;;;;;;3.97;2.30;;;;;;;;;;6191499;23;20396;-64
2022/06/16 14:10:07;;;;;;;6.93;2.25;;;;;;;;;;6196079;23;20031;-65
2022/06/16 14:12:45;;;;;;;4.30;2.13;;;;;;;;;;6189608;23;20131;-65
2022/06/16 14:15:38;;;;;;;4.05;1.67;;;;;;;;;;6199651;23;20029;-65
2022/06/16 14:18:19;;;;;;;3.30;2.13;;;;;;;;;;6190016;22;20035;-65
2022/06/16 14:20:56;;;;;;;3.25;2.05;;;;;;;;;;6193951;23;20017;-64
2022/06/16 14:23:28;;;;;;;4.35;2.08;;;;;;;;;;6182573;22;20132;-65
2022/06/16 14:25:57;;;;;;;6.70;2.50;;;;;;;;;;6199803;23;20048;-64
2022/06/16 14:28:29;;;;;;;4.70;1.88;;;;;;;;;;6188000;23;20033;-65
2022/06/16 14:31:04;;;;;;;4.25;2.20;;;;;;;;;;6198574;23;20030;-65
2022/06/16 14:33:51;;;;;;;5.63;2.10;;;;;;;;;;6185354;23;20029;-65
2022/06/16 14:36:22;;;;;;;3.80;1.85;;;;;;;;;;6196484;23;20150;-65
2022/06/16 14:38:48;;;;;;;3.47;2.10;;;;;;;;;;6201186;23;20021;-65
2022/06/16 14:41:18;;;;;;;5.70;2.10;;;;;;;;;;6191275;23;20159;-65
2022/06/16 14:43:52;;;;;;;5.30;2.40;;;;;;;;;;6201980;23;20460;-65
2022/06/16 14:46:27;;;;;;;7.13;4.93;;;;;;;;;;6184753;23;20478;-65
2022/06/16 14:48:58;;;;;;;5.97;3.60;;;;;;;;;;6195671;23;20040;-65
2022/06/16 14:51:27;;;;;;;5.40;2.20;;;;;;;;;;6190339;22;20465;-66
2022/06/16 14:54:04;;;;;;;3.28;1.95;;;;;;;;;;6200910;23;20054;-65
2022/06/16 14:56:38;;;;;;;6.95;2.20;;;;;;;;;;6198072;22;20357;-65
2022/06/16 14:59:07;;;;;;;6.35;2.50;;;;;;;;;;6201334;23;20108;-66
2022/06/16 15:01:35;;;;;;;4.80;2.33;;;;;;;;;;6194186;23;20025;-65
2022/06/16 15:04:07;;;;;;;4.32;2.72;;;;;;;;;;6185365;23;20519;-65
2022/06/16 15:06:41;;;;;;;4.63;2.10;;;;;;;;;;6201429;23;20421;-66
2022/06/16 15:09:09;;;;;;;4.28;2.03;;;;;;;;;;6190032;23;20115;-66
2022/06/16 15:11:39;;;;;;;3.75;2.05;;;;;;;;;;6201505;23;20064;-65
2022/06/16 15:14:06;;;;;;;4.85;2.20;;;;;;;;;;6187289;22;20775;-66
2022/06/16 15:19:19;;;;;;;3.45;2.35;;;;;;;;;;6200666;23;19920;-65
2022/06/16 15:21:45;;;;;;;;;;;;;;;;;;6191358;22;20108;-65
2022/06/16 15:24:11;;;;;;;4.15;2.15;;;;;;;;;;6199002;23;19920;-65